Durbin, North Dakota
Current Conditions -  °F | °C
As of 2:53 PM on Tuesday 25 Nov 2014 (Local Time) from KFAR Reporting Station
Overcast Overcast  
Wind Chill: 17°   Ceiling: 3000
Heat Index: 27°   Visibility: 10mi
Dew Point: 18°   Wind: 10mph
Humidity: 69%   Direction: 140°SE
Pressure: 29.91"   Gusts: NA
Location:  46.834°N, 97.0841°W
Report Text: KFAR 252053Z 14009KT 10SM OVC030 M03/M08 A2991 RMK AO2 SLP144 T10281078 58014
Loading
Personal Weather Stations






























Interactive Weather Map New forecast layout! Learn more

10-Day Weather Forecast

Advertisements
Track Severe Weather on mobile